UAL1035 KSJC-KDEN
Flight info
| Callsign | UAL1035 |
|---|---|
| Flight time | N/A |
| Altitude | 33000 |
| Route | LOUPE1 MOGEE Q124 SLOWN/N0462F350 Q124 BVL TCH KAMPR LONGZ4 |
| Aircraft | B738/M-SDE2E3FGHIRWXY/LB1 |
Departure
| Time | 2026-05-08 01:30 |
|---|---|
| Airport | Norman Y. Mineta San Jose International Airport (KSJC) |
Arrival
| Time | N/A |
|---|---|
| Airport | Denver International Airport (KDEN) |
| Time | Latitude | Longitude | Altitude | Speed | Heading |
|---|---|---|---|---|---|
| 2026-05-08 01:02 | 37.37031 | -121.93144 | 72 ft | 0 kts | 59° |
| 2026-05-08 01:22 | 37.37020 | -121.93166 | 62 ft | 4 kts | 57° |
| 2026-05-08 01:23 | 37.37009 | -121.93191 | 72 ft | 4 kts | 75° |
| 2026-05-08 01:23 | 37.37011 | -121.93219 | 72 ft | 4 kts | 128° |
| 2026-05-08 01:23 | 37.37021 | -121.93233 | 72 ft | 1 kts | 139° |
| 2026-05-08 01:25 | 37.37017 | -121.93228 | 65 ft | 4 kts | 139° |
| 2026-05-08 01:25 | 37.36966 | -121.93173 | 65 ft | 15 kts | 139° |
| 2026-05-08 01:25 | 37.36870 | -121.93154 | 67 ft | 17 kts | 164° |
| 2026-05-08 01:26 | 37.36751 | -121.93036 | 67 ft | 26 kts | 139° |
| 2026-05-08 01:26 | 37.36610 | -121.92881 | 64 ft | 28 kts | 139° |
| 2026-05-08 01:26 | 37.36463 | -121.92721 | 67 ft | 28 kts | 139° |
| 2026-05-08 01:26 | 37.36314 | -121.92558 | 62 ft | 29 kts | 139° |
| 2026-05-08 01:27 | 37.36161 | -121.92392 | 72 ft | 29 kts | 139° |
| 2026-05-08 01:27 | 37.36006 | -121.92222 | 72 ft | 30 kts | 139° |
| 2026-05-08 01:27 | 37.35852 | -121.92055 | 69 ft | 28 kts | 139° |
| 2026-05-08 01:27 | 37.35708 | -121.91897 | 64 ft | 27 kts | 139° |
| 2026-05-08 01:28 | 37.35573 | -121.91749 | 72 ft | 24 kts | 139° |
| 2026-05-08 01:28 | 37.35450 | -121.91615 | 66 ft | 19 kts | 143° |
| 2026-05-08 01:28 | 37.35351 | -121.91512 | 68 ft | 18 kts | 138° |
| 2026-05-08 01:28 | 37.35261 | -121.91517 | 72 ft | 14 kts | 251° |
| 2026-05-08 01:29 | 37.35304 | -121.91616 | 65 ft | 14 kts | 319° |
| 2026-05-08 01:29 | 37.35468 | -121.91796 | 69 ft | 65 kts | 319° |
| 2026-05-08 01:29 | 37.35993 | -121.92369 | 69 ft | 132 kts | 319° |
| 2026-05-08 01:29 | 37.36809 | -121.93265 | 304 ft | 167 kts | 318° |
| 2026-05-08 01:30 | 37.37690 | -121.94240 | 1066 ft | 173 kts | 319° |
| 2026-05-08 01:30 | 37.38610 | -121.95258 | 1872 ft | 180 kts | 319° |
| 2026-05-08 01:30 | 37.39568 | -121.96312 | 2691 ft | 186 kts | 319° |
| 2026-05-08 01:30 | 37.40709 | -121.97265 | 3056 ft | 213 kts | 342° |
| 2026-05-08 01:31 | 37.42233 | -121.97282 | 3348 ft | 236 kts | 16° |
| 2026-05-08 01:31 | 37.43622 | -121.96117 | 3882 ft | 249 kts | 49° |
| 2026-05-08 01:31 | 37.44315 | -121.94115 | 4518 ft | 257 kts | 83° |
| 2026-05-08 01:31 | 37.44024 | -121.91869 | 4954 ft | 274 kts | 116° |
| 2026-05-08 01:32 | 37.42770 | -121.89906 | 5029 ft | 305 kts | 137° |
| 2026-05-08 01:32 | 37.41132 | -121.87980 | 5024 ft | 339 kts | 137° |
| 2026-05-08 01:32 | 37.39366 | -121.85802 | 5021 ft | 371 kts | 135° |
| 2026-05-08 01:32 | 37.37493 | -121.83442 | 5130 ft | 391 kts | 135° |
| 2026-05-08 01:33 | 37.35637 | -121.80995 | 5041 ft | 379 kts | 133° |
| 2026-05-08 01:33 | 37.33773 | -121.78767 | 4974 ft | 360 kts | 148° |
| 2026-05-08 01:33 | 37.31542 | -121.77638 | 5001 ft | 338 kts | 171° |
| 2026-05-08 01:33 | 37.29266 | -121.77561 | 5001 ft | 319 kts | 189° |
| 2026-05-08 01:34 | 37.27193 | -121.78299 | 4980 ft | 302 kts | 206° |
| 2026-05-08 01:34 | 37.25475 | -121.79627 | 5038 ft | 287 kts | 221° |
| 2026-05-08 01:34 | 37.24150 | -121.81397 | 5252 ft | 272 kts | 236° |
| 2026-05-08 01:34 | 37.23269 | -121.83451 | 5588 ft | 268 kts | 250° |
| 2026-05-08 01:35 | 37.22820 | -121.85758 | 6257 ft | 274 kts | 264° |
| 2026-05-08 01:35 | 37.22834 | -121.88147 | 7112 ft | 275 kts | 278° |
| 2026-05-08 01:35 | 37.23345 | -121.90465 | 7872 ft | 279 kts | 294° |
| 2026-05-08 01:35 | 37.24360 | -121.92549 | 8620 ft | 283 kts | 309° |
| 2026-05-08 01:36 | 37.25823 | -121.94235 | 9344 ft | 288 kts | 325° |
| 2026-05-08 01:36 | 37.27597 | -121.95370 | 10052 ft | 293 kts | 339° |
| 2026-05-08 01:36 | 37.29610 | -121.96027 | 10490 ft | 310 kts | 352° |
| 2026-05-08 01:36 | 37.31848 | -121.95900 | 10659 ft | 335 kts | 8° |
| 2026-05-08 01:37 | 37.34209 | -121.95345 | 10831 ft | 356 kts | 10° |
| 2026-05-08 01:37 | 37.36708 | -121.94722 | 10988 ft | 375 kts | 7° |
| 2026-05-08 01:37 | 37.39345 | -121.94522 | 11339 ft | 384 kts | 356° |
| 2026-05-08 01:37 | 37.42027 | -121.94752 | 11931 ft | 387 kts | 354° |
| 2026-05-08 01:38 | 37.44724 | -121.95032 | 12572 ft | 389 kts | 354° |
| 2026-05-08 01:38 | 37.46514 | -121.95216 | 12989 ft | 391 kts | 354° |
| 2026-05-08 01:38 | 37.50158 | -121.95566 | 13791 ft | 395 kts | 354° |
| 2026-05-08 01:38 | 37.52907 | -121.95814 | 14376 ft | 397 kts | 355° |
| 2026-05-08 01:39 | 37.55674 | -121.96056 | 14946 ft | 400 kts | 355° |
| 2026-05-08 01:39 | 37.58464 | -121.96271 | 15507 ft | 404 kts | 358° |
| 2026-05-08 01:39 | 37.61272 | -121.95914 | 16032 ft | 408 kts | 12° |
| 2026-05-08 01:39 | 37.63979 | -121.94787 | 16576 ft | 412 kts | 24° |
| 2026-05-08 01:40 | 37.66453 | -121.93017 | 17113 ft | 415 kts | 31° |
| 2026-05-08 01:40 | 37.68895 | -121.91050 | 17614 ft | 418 kts | 32° |
| 2026-05-08 01:40 | 37.71340 | -121.89047 | 18106 ft | 421 kts | 32° |
| 2026-05-08 01:40 | 37.73807 | -121.87031 | 18582 ft | 424 kts | 32° |
| 2026-05-08 01:41 | 37.76308 | -121.85006 | 19048 ft | 427 kts | 31° |
| 2026-05-08 01:41 | 37.78821 | -121.82987 | 19511 ft | 430 kts | 31° |
| 2026-05-08 01:41 | 37.81356 | -121.80960 | 19944 ft | 433 kts | 31° |
| 2026-05-08 01:41 | 37.83915 | -121.78919 | 20359 ft | 436 kts | 31° |
| 2026-05-08 01:42 | 37.86490 | -121.76865 | 20769 ft | 439 kts | 31° |
| 2026-05-08 01:42 | 37.89088 | -121.74790 | 21182 ft | 442 kts | 31° |
| 2026-05-08 01:42 | 37.90809 | -121.73414 | 21448 ft | 443 kts | 31° |
| 2026-05-08 01:42 | 37.93432 | -121.71315 | 21821 ft | 446 kts | 31° |
| 2026-05-08 01:43 | 37.96956 | -121.68493 | 22308 ft | 450 kts | 32° |
| 2026-05-08 01:43 | 37.99608 | -121.66368 | 22674 ft | 452 kts | 32° |
| 2026-05-08 01:43 | 38.02275 | -121.64228 | 23018 ft | 454 kts | 32° |
| 2026-05-08 01:43 | 38.04952 | -121.62082 | 23353 ft | 457 kts | 32° |
| 2026-05-08 01:44 | 38.07647 | -121.59920 | 23668 ft | 459 kts | 32° |
| 2026-05-08 01:44 | 38.10321 | -121.57775 | 23971 ft | 461 kts | 32° |
| 2026-05-08 01:44 | 38.13039 | -121.55591 | 24269 ft | 463 kts | 32° |
| 2026-05-08 01:44 | 38.15769 | -121.53395 | 24587 ft | 465 kts | 32° |
| 2026-05-08 01:45 | 38.18507 | -121.51191 | 24909 ft | 466 kts | 32° |
| 2026-05-08 01:45 | 38.21255 | -121.48976 | 25210 ft | 468 kts | 32° |
| 2026-05-08 01:45 | 38.24010 | -121.46753 | 25499 ft | 470 kts | 32° |
| 2026-05-08 01:45 | 38.26778 | -121.44519 | 25799 ft | 471 kts | 31° |
| 2026-05-08 01:46 | 38.29547 | -121.42281 | 26096 ft | 472 kts | 31° |
| 2026-05-08 01:46 | 38.32291 | -121.39955 | 26360 ft | 475 kts | 36° |
| 2026-05-08 01:46 | 38.34781 | -121.37189 | 26614 ft | 477 kts | 45° |
| 2026-05-08 01:46 | 38.36933 | -121.33956 | 26877 ft | 479 kts | 51° |
| 2026-05-08 01:47 | 38.38993 | -121.30601 | 27139 ft | 481 kts | 51° |
| 2026-05-08 01:47 | 38.41038 | -121.27217 | 27385 ft | 482 kts | 51° |
| 2026-05-08 01:47 | 38.43088 | -121.23820 | 27662 ft | 483 kts | 51° |
| 2026-05-08 01:48 | 38.47171 | -121.17117 | 28396 ft | 479 kts | 51° |
| 2026-05-08 01:48 | 38.49222 | -121.13775 | 28776 ft | 477 kts | 51° |
| 2026-05-08 01:48 | 38.51269 | -121.10447 | 29124 ft | 476 kts | 51° |
| 2026-05-08 01:48 | 38.53315 | -121.07124 | 29450 ft | 476 kts | 51° |
| 2026-05-08 01:49 | 38.55362 | -121.03800 | 29810 ft | 475 kts | 51° |
| 2026-05-08 01:49 | 38.57403 | -121.00485 | 30195 ft | 474 kts | 51° |
| 2026-05-08 01:49 | 38.59431 | -120.97185 | 30577 ft | 472 kts | 51° |
| 2026-05-08 01:49 | 38.61457 | -120.93885 | 30902 ft | 471 kts | 51° |
| 2026-05-08 01:50 | 38.63483 | -120.90579 | 31176 ft | 472 kts | 51° |
| 2026-05-08 01:50 | 38.65510 | -120.87270 | 31454 ft | 471 kts | 51° |
| 2026-05-08 01:50 | 38.67528 | -120.83971 | 31756 ft | 471 kts | 51° |
| 2026-05-08 01:50 | 38.69546 | -120.80669 | 32079 ft | 470 kts | 51° |
| 2026-05-08 01:51 | 38.71563 | -120.77363 | 32404 ft | 469 kts | 51° |
| 2026-05-08 01:51 | 38.73540 | -120.74116 | 32686 ft | 469 kts | 51° |
| 2026-05-08 01:51 | 38.75548 | -120.70818 | 32953 ft | 469 kts | 51° |
| 2026-05-08 01:51 | 38.77556 | -120.67519 | 33229 ft | 468 kts | 51° |
| 2026-05-08 01:52 | 38.79558 | -120.64225 | 33540 ft | 467 kts | 51° |
| 2026-05-08 01:52 | 38.81552 | -120.60941 | 33789 ft | 467 kts | 51° |
| 2026-05-08 01:52 | 38.83548 | -120.57650 | 34023 ft | 467 kts | 51° |
| 2026-05-08 01:52 | 38.85543 | -120.54357 | 34283 ft | 466 kts | 51° |
| 2026-05-08 01:53 | 38.87532 | -120.51070 | 34546 ft | 466 kts | 51° |
| 2026-05-08 01:53 | 38.89518 | -120.47785 | 34777 ft | 466 kts | 51° |
| 2026-05-08 01:53 | 38.91504 | -120.44499 | 35005 ft | 465 kts | 51° |
| 2026-05-08 01:53 | 38.93492 | -120.41206 | 35212 ft | 466 kts | 51° |
| 2026-05-08 01:54 | 38.97483 | -120.34583 | 35212 ft | 468 kts | 51° |
| 2026-05-08 01:54 | 39.01417 | -120.28038 | 35216 ft | 464 kts | 51° |
| 2026-05-08 01:55 | 39.05348 | -120.21481 | 35226 ft | 462 kts | 51° |
| 2026-05-08 01:55 | 39.09263 | -120.14947 | 35229 ft | 460 kts | 51° |
| 2026-05-08 01:56 | 39.13161 | -120.08426 | 35230 ft | 460 kts | 51° |
| 2026-05-08 01:56 | 39.16397 | -120.03002 | 35223 ft | 460 kts | 51° |
| 2026-05-08 01:57 | 39.20971 | -119.95319 | 35219 ft | 462 kts | 51° |
| 2026-05-08 01:57 | 39.24898 | -119.88708 | 35196 ft | 465 kts | 50° |
| 2026-05-08 01:58 | 39.28831 | -119.82073 | 35184 ft | 466 kts | 51° |
| 2026-05-08 01:58 | 39.32744 | -119.75456 | 35174 ft | 466 kts | 51° |
| 2026-05-08 01:59 | 39.36680 | -119.68785 | 35136 ft | 467 kts | 51° |
| 2026-05-08 01:59 | 39.40609 | -119.62119 | 35132 ft | 466 kts | 51° |
| 2026-05-08 02:00 | 39.44528 | -119.55446 | 35134 ft | 466 kts | 51° |
| 2026-05-08 02:00 | 39.47783 | -119.49897 | 35122 ft | 465 kts | 51° |
| 2026-05-08 02:01 | 39.51693 | -119.43221 | 35127 ft | 465 kts | 51° |
| 2026-05-08 02:01 | 39.56230 | -119.35450 | 35135 ft | 464 kts | 51° |
| 2026-05-08 02:02 | 39.59490 | -119.29857 | 35122 ft | 463 kts | 51° |
| 2026-05-08 02:02 | 39.63373 | -119.23186 | 35108 ft | 463 kts | 51° |
| 2026-05-08 02:03 | 39.67248 | -119.16513 | 35083 ft | 462 kts | 51° |
| 2026-05-08 02:03 | 39.71086 | -119.09888 | 35067 ft | 461 kts | 50° |
| 2026-05-08 02:04 | 39.74941 | -119.03219 | 35063 ft | 461 kts | 50° |
| 2026-05-08 02:04 | 39.78791 | -118.96549 | 35056 ft | 461 kts | 50° |
| 2026-05-08 02:05 | 39.82636 | -118.89868 | 35045 ft | 461 kts | 50° |
| 2026-05-08 02:05 | 39.86480 | -118.83178 | 35045 ft | 461 kts | 50° |
| 2026-05-08 02:06 | 39.90026 | -118.76205 | 35046 ft | 464 kts | 58° |
| 2026-05-08 02:06 | 39.93026 | -118.68741 | 35036 ft | 465 kts | 60° |
| 2026-05-08 02:07 | 39.95977 | -118.61295 | 35032 ft | 465 kts | 59° |
| 2026-05-08 02:07 | 39.98982 | -118.53838 | 35028 ft | 464 kts | 59° |
| 2026-05-08 02:08 | 40.02004 | -118.46394 | 35030 ft | 465 kts | 58° |
| 2026-05-08 02:08 | 40.05028 | -118.38936 | 35032 ft | 466 kts | 58° |
| 2026-05-08 02:09 | 40.08054 | -118.31452 | 35021 ft | 466 kts | 58° |
| 2026-05-08 02:09 | 40.11067 | -118.23977 | 35032 ft | 465 kts | 58° |
| 2026-05-08 02:10 | 40.14076 | -118.16493 | 35036 ft | 465 kts | 58° |
| 2026-05-08 02:10 | 40.17082 | -118.08999 | 35034 ft | 464 kts | 58° |
| 2026-05-08 02:11 | 40.20027 | -118.01486 | 35042 ft | 466 kts | 63° |
| 2026-05-08 02:11 | 40.22083 | -117.93401 | 35061 ft | 468 kts | 70° |
| 2026-05-08 02:12 | 40.23910 | -117.85267 | 35051 ft | 469 kts | 70° |
| 2026-05-08 02:12 | 40.25770 | -117.77070 | 35055 ft | 469 kts | 70° |
| 2026-05-08 02:13 | 40.27658 | -117.68888 | 35046 ft | 469 kts | 69° |
| 2026-05-08 02:13 | 40.29556 | -117.60692 | 35052 ft | 470 kts | 69° |
| 2026-05-08 02:14 | 40.31452 | -117.52482 | 35062 ft | 471 kts | 69° |
| 2026-05-08 02:14 | 40.33344 | -117.44249 | 35054 ft | 472 kts | 69° |
| 2026-05-08 02:15 | 40.35234 | -117.35998 | 35052 ft | 473 kts | 69° |
| 2026-05-08 02:15 | 40.37109 | -117.27782 | 35059 ft | 473 kts | 69° |
| 2026-05-08 02:16 | 40.38989 | -117.19504 | 35051 ft | 474 kts | 69° |
| 2026-05-08 02:16 | 40.40866 | -117.11209 | 35064 ft | 473 kts | 69° |
| 2026-05-08 02:17 | 40.42728 | -117.02930 | 35055 ft | 473 kts | 69° |
| 2026-05-08 02:17 | 40.44595 | -116.94635 | 35055 ft | 474 kts | 69° |
| 2026-05-08 02:18 | 40.46457 | -116.86328 | 35052 ft | 475 kts | 69° |
| 2026-05-08 02:18 | 40.48316 | -116.77990 | 35055 ft | 475 kts | 69° |
| 2026-05-08 02:19 | 40.50173 | -116.69630 | 35047 ft | 476 kts | 69° |
| 2026-05-08 02:19 | 40.52012 | -116.61327 | 35067 ft | 475 kts | 69° |
| 2026-05-08 02:20 | 40.53849 | -116.52993 | 35054 ft | 474 kts | 69° |
| 2026-05-08 02:20 | 40.55678 | -116.44671 | 35059 ft | 473 kts | 69° |
| 2026-05-08 02:21 | 40.57130 | -116.36185 | 35061 ft | 479 kts | 79° |
| 2026-05-08 02:21 | 40.57790 | -116.27509 | 35060 ft | 480 kts | 81° |
| 2026-05-08 02:22 | 40.58381 | -116.18749 | 35066 ft | 480 kts | 80° |
| 2026-05-08 02:22 | 40.59009 | -116.10004 | 35066 ft | 480 kts | 80° |
| 2026-05-08 02:23 | 40.59662 | -116.01273 | 35051 ft | 480 kts | 80° |
| 2026-05-08 02:23 | 40.60316 | -115.92532 | 35050 ft | 479 kts | 79° |
| 2026-05-08 02:24 | 40.60958 | -115.83846 | 35055 ft | 480 kts | 79° |
| 2026-05-08 02:24 | 40.61597 | -115.75092 | 35058 ft | 481 kts | 79° |
| 2026-05-08 02:25 | 40.62231 | -115.66325 | 35056 ft | 481 kts | 79° |
| 2026-05-08 02:25 | 40.62860 | -115.57546 | 35057 ft | 482 kts | 80° |
| 2026-05-08 02:26 | 40.63483 | -115.48736 | 35066 ft | 484 kts | 80° |
| 2026-05-08 02:26 | 40.64102 | -115.39895 | 35051 ft | 485 kts | 80° |
| 2026-05-08 02:27 | 40.64708 | -115.31106 | 35059 ft | 485 kts | 80° |
| 2026-05-08 02:27 | 40.65313 | -115.22255 | 35063 ft | 485 kts | 79° |
| 2026-05-08 02:28 | 40.65914 | -115.13392 | 35056 ft | 485 kts | 80° |
| 2026-05-08 02:28 | 40.66503 | -115.04571 | 35052 ft | 486 kts | 80° |
| 2026-05-08 02:29 | 40.67089 | -114.95693 | 35055 ft | 486 kts | 80° |
| 2026-05-08 02:29 | 40.67665 | -114.86878 | 35054 ft | 487 kts | 80° |
| 2026-05-08 02:30 | 40.68239 | -114.77982 | 35039 ft | 487 kts | 80° |
| 2026-05-08 02:30 | 40.68807 | -114.69084 | 35034 ft | 488 kts | 80° |
| 2026-05-08 02:31 | 40.69368 | -114.60165 | 35038 ft | 489 kts | 80° |
| 2026-05-08 02:31 | 40.69925 | -114.51235 | 35029 ft | 488 kts | 80° |
| 2026-05-08 02:32 | 40.70229 | -114.45560 | 35018 ft | 490 kts | 82° |
| 2026-05-08 02:32 | 40.70550 | -114.36595 | 35021 ft | 490 kts | 82° |
| 2026-05-08 02:33 | 40.70833 | -114.27878 | 35013 ft | 490 kts | 82° |
| 2026-05-08 02:33 | 40.71145 | -114.18828 | 35008 ft | 489 kts | 82° |
| 2026-05-08 02:34 | 40.71459 | -114.09923 | 35011 ft | 489 kts | 82° |
| 2026-05-08 02:34 | 40.71768 | -114.00979 | 35011 ft | 488 kts | 82° |
| 2026-05-08 02:35 | 40.72068 | -113.92039 | 35004 ft | 488 kts | 82° |
| 2026-05-08 02:35 | 40.72363 | -113.83114 | 35011 ft | 487 kts | 82° |
| 2026-05-08 02:36 | 40.72649 | -113.74265 | 34972 ft | 470 kts | 82° |
| 2026-05-08 02:36 | 40.72701 | -113.70004 | 34655 ft | 458 kts | 84° |
| 2026-05-08 02:36 | 40.72689 | -113.65817 | 33941 ft | 456 kts | 85° |
| 2026-05-08 02:37 | 40.72661 | -113.61585 | 32614 ft | 468 kts | 85° |
| 2026-05-08 02:37 | 40.72632 | -113.57294 | 31216 ft | 480 kts | 85° |
| 2026-05-08 02:37 | 40.72608 | -113.52854 | 29810 ft | 488 kts | 85° |
| 2026-05-08 02:37 | 40.72601 | -113.51395 | 29354 ft | 490 kts | 85° |
| 2026-05-08 02:38 | 40.72595 | -113.49965 | 28903 ft | 492 kts | 86° |
| 2026-05-08 02:38 | 40.72576 | -113.45422 | 27443 ft | 497 kts | 86° |
| 2026-05-08 02:38 | 40.72559 | -113.40862 | 26118 ft | 498 kts | 86° |
| 2026-05-08 02:38 | 40.72541 | -113.36319 | 25081 ft | 491 kts | 86° |
| 2026-05-08 02:39 | 40.72521 | -113.31857 | 24187 ft | 480 kts | 86° |
| 2026-05-08 02:39 | 40.72501 | -113.27492 | 23249 ft | 471 kts | 86° |
| 2026-05-08 02:39 | 40.72498 | -113.26935 | 23126 ft | 470 kts | 86° |
| 2026-05-08 02:39 | 40.72480 | -113.22642 | 22047 ft | 465 kts | 86° |
| 2026-05-08 02:40 | 40.72461 | -113.18400 | 20979 ft | 461 kts | 86° |
| 2026-05-08 02:40 | 40.72442 | -113.14247 | 19952 ft | 456 kts | 87° |
| 2026-05-08 02:40 | 40.72422 | -113.10098 | 18937 ft | 451 kts | 87° |
| 2026-05-08 02:40 | 40.72396 | -113.06016 | 18343 ft | 437 kts | 87° |
| 2026-05-08 02:41 | 40.72369 | -113.02100 | 18135 ft | 415 kts | 87° |
| 2026-05-08 02:41 | 40.72341 | -112.98366 | 17724 ft | 401 kts | 87° |
| 2026-05-08 02:41 | 40.72320 | -112.94751 | 17437 ft | 387 kts | 87° |
| 2026-05-08 02:41 | 40.72298 | -112.91279 | 17222 ft | 371 kts | 87° |
| 2026-05-08 02:42 | 40.72273 | -112.87948 | 17049 ft | 356 kts | 87° |
| 2026-05-08 02:42 | 40.72246 | -112.84749 | 16860 ft | 342 kts | 87° |
| 2026-05-08 02:42 | 40.72219 | -112.81639 | 16641 ft | 337 kts | 87° |
| 2026-05-08 02:42 | 40.72192 | -112.78549 | 16456 ft | 346 kts | 87° |
| 2026-05-08 02:43 | 40.72165 | -112.75345 | 16223 ft | 352 kts | 88° |
| 2026-05-08 02:43 | 40.72134 | -112.72125 | 15985 ft | 350 kts | 88° |
| 2026-05-08 02:43 | 40.72102 | -112.68935 | 15738 ft | 347 kts | 88° |
| 2026-05-08 02:43 | 40.72070 | -112.65762 | 15502 ft | 344 kts | 88° |
| 2026-05-08 02:44 | 40.72036 | -112.62613 | 15290 ft | 343 kts | 88° |
| 2026-05-08 02:44 | 40.72006 | -112.59472 | 15041 ft | 343 kts | 88° |
| 2026-05-08 02:44 | 40.71982 | -112.56333 | 14818 ft | 341 kts | 88° |
| 2026-05-08 02:44 | 40.71970 | -112.53214 | 14595 ft | 339 kts | 85° |
| 2026-05-08 02:45 | 40.72297 | -112.50157 | 14374 ft | 334 kts | 74° |
| 2026-05-08 02:45 | 40.72826 | -112.47171 | 14158 ft | 334 kts | 73° |
| 2026-05-08 02:45 | 40.73365 | -112.44225 | 13935 ft | 335 kts | 73° |
| 2026-05-08 02:45 | 40.73896 | -112.41242 | 13711 ft | 333 kts | 74° |
| 2026-05-08 02:46 | 40.74408 | -112.38263 | 13482 ft | 332 kts | 74° |
| 2026-05-08 02:46 | 40.74766 | -112.36129 | 13326 ft | 331 kts | 75° |
| 2026-05-08 02:46 | 40.75256 | -112.33166 | 13105 ft | 330 kts | 75° |
| 2026-05-08 02:46 | 40.75748 | -112.30180 | 12898 ft | 335 kts | 75° |
| 2026-05-08 02:47 | 40.76165 | -112.27138 | 12667 ft | 337 kts | 79° |
| 2026-05-08 02:47 | 40.76503 | -112.24084 | 12434 ft | 335 kts | 79° |
| 2026-05-08 02:47 | 40.76832 | -112.21069 | 12201 ft | 330 kts | 80° |